Time;durP1;ratioP1;P1;durP2;ratioP2;P2;SDS_P1;SDS_P2;PMS_P1;PMS_P2;Temp;Humidity;BMP_temperature;BMP_pressure;BME280_temperature;BME280_humidity;BME280_pressure;Samples;Min_cycle;Max_cycle;Signal;HPM_P1;HPM_P2
2022/02/18 04:30:16;;;;;;;9.83;3.80;;;;;;;13.15;46.01;98489.00;8249032;23;20182;-87
2022/02/18 04:33:38;;;;;;;10.37;3.23;;;;;;;12.65;46.41;98422.63;6805471;29;20755;-86
2022/02/18 04:37:00;;;;;;;14.10;4.37;;;;;;;12.08;46.81;98347.41;6809232;29;20216;-86
2022/02/18 04:40:21;;;;;;;13.87;3.63;;;;;;;12.66;46.72;98402.63;6808557;29;20207;-86
2022/02/18 04:43:43;;;;;;;14.23;3.80;;;;;;;12.22;47.88;98402.94;6808653;29;20209;-87
2022/02/18 04:47:21;;;;;;;21.70;5.57;;;;;;;13.02;47.18;98447.75;6808497;29;20217;-87
2022/02/18 04:50:43;;;;;;;10.77;3.63;;;;;;;12.28;47.46;98342.59;6808005;29;20273;-87
2022/02/18 04:54:05;;;;;;;11.47;3.60;;;;;;;12.50;46.10;98295.09;6809173;29;20643;-87
2022/02/18 05:09:29;;;;;;;12.20;4.13;;;;;;;12.31;47.34;98320.53;6727525;29;20717;-87
2022/02/18 05:13:32;;;;;;;14.30;3.90;;;;;;;12.81;47.74;98415.75;6727686;29;20238;-85
2022/02/18 05:16:54;;;;;;;15.40;8.50;;;;;;;12.88;47.98;98417.31;6727414;29;20217;-87
2022/02/18 05:20:17;;;;;;;13.00;4.43;;;;;;;11.99;48.67;98313.63;6747531;29;20221;-87
2022/02/18 05:23:38;;;;;;;11.13;3.80;;;;;;;12.24;48.99;98360.31;6752072;29;20224;-87
2022/02/18 05:27:02;;;;;;;15.50;4.03;;;;;;;12.39;49.08;98404.00;6734138;29;20558;-87
2022/02/18 05:30:23;;;;;;;7.57;3.00;;;;;;;12.33;48.45;98371.66;6746751;29;20259;-87
2022/02/18 05:33:45;;;;;;;10.37;3.80;;;;;;;12.71;47.38;98329.75;6753539;29;20205;-86
2022/02/18 05:37:09;;;;;;;13.93;3.90;;;;;;;13.33;46.39;98361.69;6751542;29;20201;-86
2022/02/18 05:40:31;;;;;;;14.00;3.60;;;;;;;13.20;45.76;98318.59;6754829;29;20248;-87
2022/02/18 05:43:54;;;;;;;11.53;3.67;;;;;;;13.44;46.04;98358.19;6755800;29;20189;-86
2022/02/18 05:47:15;;;;;;;10.30;3.57;;;;;;;13.71;45.54;98358.53;6794647;29;20558;-85
2022/02/18 05:50:37;;;;;;;12.37;3.80;;;;;;;13.79;44.41;98298.56;6809317;29;20235;-86
2022/02/18 05:53:58;;;;;;;11.90;3.87;;;;;;;14.23;43.83;98317.72;6809036;29;20211;-86
2022/02/18 05:57:28;;;;;;;10.13;4.33;;;;;;;14.05;44.29;98317.84;6809721;29;20242;-86
2022/02/18 06:00:51;;;;;;;9.67;3.37;;;;;;;13.97;43.77;98311.97;6809978;29;20223;-86
2022/02/18 06:04:13;;;;;;;15.23;3.80;;;;;;;13.93;43.80;98287.22;6809302;29;20222;-86
2022/02/18 06:07:35;;;;;;;16.03;4.40;;;;;;;14.47;42.63;98283.22;6814742;29;20231;-86
2022/02/18 06:10:56;;;;;;;15.90;4.00;;;;;;;14.07;43.44;98274.25;6810780;29;20239;-86
2022/02/18 06:14:18;;;;;;;12.30;3.27;;;;;;;14.69;42.48;98278.75;6809186;29;20289;-86
2022/02/18 06:17:41;;;;;;;11.50;4.07;;;;;;;14.59;42.75;98279.41;6816308;29;20214;-87
2022/02/18 06:21:03;;;;;;;11.37;3.50;;;;;;;14.65;42.12;98247.75;6825515;29;20246;-87
2022/02/18 06:24:25;;;;;;;10.17;3.80;;;;;;;14.74;42.30;98251.72;6809737;29;20677;-87
2022/02/18 06:27:47;;;;;;;10.93;4.10;;;;;;;14.62;42.80;98268.06;6808887;29;20258;-87
2022/02/18 06:31:08;;;;;;;9.87;3.70;;;;;;;14.73;42.47;98260.91;6811024;29;20284;-86
2022/02/18 06:34:31;;;;;;;7.83;3.17;;;;;;;14.25;43.62;98245.13;6813251;29;20214;-87
2022/02/18 06:37:53;;;;;;;12.77;3.60;;;;;;;14.15;44.25;98253.00;6812828;29;20219;-87
2022/02/18 06:41:15;;;;;;;9.17;3.33;;;;;;;14.62;43.57;98229.25;6813256;29;20249;-87
2022/02/18 06:44:37;;;;;;;13.70;3.80;;;;;;;14.52;43.82;98229.88;6812818;29;20211;-87
2022/02/18 06:47:58;;;;;;;14.90;3.47;;;;;;;14.19;44.27;98215.41;6816074;29;20298;-86
2022/02/18 06:51:21;;;;;;;9.47;3.30;;;;;;;14.55;43.66;98215.00;6813291;29;20246;-87
2022/02/18 06:54:43;;;;;;;10.60;3.57;;;;;;;14.92;43.05;98210.78;6813084;29;20213;-87
2022/02/18 06:58:13;;;;;;;13.77;3.67;;;;;;;14.75;43.16;98207.22;6812798;29;20270;-87
2022/02/18 07:01:34;;;;;;;15.80;3.87;;;;;;;14.86;42.91;98206.34;6812662;29;20610;-87
2022/02/18 07:04:56;;;;;;;7.87;3.00;;;;;;;15.00;42.18;98181.31;6812833;29;20218;-88
2022/02/18 07:08:19;;;;;;;11.83;3.23;;;;;;;15.06;41.63;98196.63;6813231;29;20207;-87
2022/02/18 07:11:40;;;;;;;10.80;3.30;;;;;;;14.97;41.99;98195.38;6812745;29;20370;-87
2022/02/18 07:15:02;;;;;;;10.97;3.83;;;;;;;14.92;41.98;98184.44;6811286;29;20202;-86
2022/02/18 07:18:24;;;;;;;13.13;3.50;;;;;;;14.99;41.60;98166.09;6811812;29;20215;-85
2022/02/18 07:21:46;;;;;;;13.90;3.90;;;;;;;14.83;41.84;98175.09;6811519;29;20300;-87
2022/02/18 07:25:10;;;;;;;10.27;3.30;;;;;;;14.58;42.55;98179.25;6810690;29;20209;-87
2022/02/18 07:28:31;;;;;;;14.57;3.73;;;;;;;14.50;42.76;98176.94;6811203;29;20220;-87
2022/02/18 07:31:53;;;;;;;12.50;4.30;;;;;;;14.67;42.47;98156.06;6810981;29;20239;-87
2022/02/18 07:35:14;;;;;;;12.07;3.70;;;;;;;14.83;42.29;98157.97;6810441;29;20212;-87
2022/02/18 07:38:36;;;;;;;10.03;3.17;;;;;;;15.02;41.81;98164.78;6811781;29;20317;-87
2022/02/18 07:41:59;;;;;;;8.30;3.70;;;;;;;14.68;42.19;98157.75;6810524;29;20241;-87
2022/02/18 07:45:22;;;;;;;8.07;3.30;;;;;;;14.95;41.75;98137.81;6812564;29;20211;-87
2022/02/18 07:48:43;;;;;;;13.33;3.47;;;;;;;14.52;42.23;98099.66;6810904;29;20214;-87
2022/02/18 07:52:05;;;;;;;10.90;3.37;;;;;;;14.90;42.37;98140.44;6811211;29;20454;-87
2022/02/18 07:55:33;;;;;;;10.37;3.23;;;;;;;15.09;42.41;98128.22;6809917;29;20284;-87
2022/02/18 07:58:56;;;;;;;9.33;3.57;;;;;;;15.39;41.81;98136.81;6810339;29;20192;-87
2022/02/18 08:02:17;;;;;;;10.70;3.50;;;;;;;15.15;42.48;98104.72;6810993;29;20231;-86
2022/02/18 08:05:39;;;;;;;6.90;3.37;;;;;;;15.37;42.36;98102.84;6812298;29;20219;-85
2022/02/18 08:09:01;;;;;;;7.87;3.27;;;;;;;15.65;41.86;98102.66;6813064;29;20598;-86
2022/02/18 08:12:23;;;;;;;9.43;3.23;;;;;;;15.55;42.21;98084.34;6812871;29;20238;-85
2022/02/18 08:15:46;;;;;;;7.53;2.93;;;;;;;15.71;42.57;98086.16;6812896;29;20219;-86
2022/02/18 08:19:07;;;;;;;12.43;3.17;;;;;;;15.78;42.26;98062.31;6806396;29;20213;-85
2022/02/18 08:22:29;;;;;;;10.50;3.00;;;;;;;15.61;43.12;98068.91;6786347;29;20231;-85
2022/02/18 08:25:51;;;;;;;11.77;3.80;;;;;;;15.24;43.43;98065.16;6786366;29;20626;-85
2022/02/18 08:29:13;;;;;;;11.97;4.17;;;;;;;15.15;43.58;98070.22;6786488;29;20380;-86
2022/02/18 08:32:36;;;;;;;21.23;5.53;;;;;;;15.26;43.43;98054.84;6786129;29;20291;-86
2022/02/18 08:35:57;;;;;;;18.17;3.87;;;;;;;14.46;45.58;98070.81;6786528;29;20214;-85
2022/02/18 08:39:20;;;;;;;13.20;3.67;;;;;;;14.36;45.58;97981.19;6787133;29;20213;-85
2022/02/18 08:42:42;;;;;;;7.07;2.70;;;;;;;15.46;44.71;98053.25;6786804;29;20291;-85
2022/02/18 08:46:03;;;;;;;6.53;2.70;;;;;;;16.05;44.01;98049.50;6786253;29;20242;-85
2022/02/18 08:49:27;;;;;;;6.73;2.50;;;;;;;15.86;44.27;98004.75;6786717;29;20269;-86
2022/02/18 08:52:48;;;;;;;6.77;2.37;;;;;;;16.06;44.04;98023.16;6783290;29;20242;-86
2022/02/18 08:56:26;;;;;;;5.73;2.47;;;;;;;16.07;44.58;98022.91;6782470;29;20544;-86
2022/02/18 08:59:47;;;;;;;4.77;2.73;;;;;;;16.50;44.23;98024.63;6783306;29;20250;-86
2022/02/18 09:03:11;;;;;;;4.13;2.00;;;;;;;15.56;47.48;98001.75;6785715;29;20231;-86
2022/02/18 09:06:33;;;;;;;2.10;1.83;;;;;;;16.34;45.95;98014.69;6783983;29;20246;-86
2022/02/18 09:09:56;;;;;;;7.20;1.87;;;;;;;16.31;46.02;97974.38;6785426;29;20221;-86
2022/02/18 09:13:20;;;;;;;3.73;1.93;;;;;;;16.37;46.45;97979.63;6785307;29;20233;-86
2022/02/18 09:16:41;;;;;;;2.50;1.70;;;;;;;16.45;46.86;97978.34;6784292;29;20213;-86
2022/02/18 09:20:05;;;;;;;5.43;2.10;;;;;;;16.96;45.73;97937.50;6785299;29;20211;-87
2022/02/18 09:23:28;;;;;;;5.50;2.00;;;;;;;16.65;46.45;97957.53;6805428;29;20219;-88
2022/02/18 09:26:51;;;;;;;5.27;1.77;;;;;;;15.86;47.46;97877.00;6803699;28;20211;-86
2022/02/18 09:30:13;;;;;;;2.83;1.73;;;;;;;16.86;46.30;97947.56;6784102;29;20207;-85
2022/02/18 09:33:35;;;;;;;4.53;1.73;;;;;;;16.71;46.51;97939.28;6784020;29;20237;-86
2022/02/18 09:36:56;;;;;;;3.83;2.07;;;;;;;16.64;47.00;97944.16;6784575;29;20210;-86
2022/02/18 09:40:19;;;;;;;2.23;1.57;;;;;;;16.31;47.01;97884.63;6784319;29;20211;-86
2022/02/18 09:43:42;;;;;;;3.80;1.80;;;;;;;16.33;47.23;97883.28;6783984;29;20211;-86
2022/02/18 09:47:04;;;;;;;2.20;1.50;;;;;;;16.79;46.78;97926.00;6784010;29;20221;-86
2022/02/18 09:50:27;;;;;;;9.80;4.60;;;;;;;17.18;46.32;97940.03;6782658;29;20217;-86
2022/02/18 09:53:49;;;;;;;3.43;1.93;;;;;;;17.43;45.67;97919.16;6782977;29;20679;-87
2022/02/18 09:57:13;;;;;;;3.80;1.80;;;;;;;17.31;46.03;97928.63;6784811;29;20214;-86
2022/02/18 10:00:35;;;;;;;2.80;1.80;;;;;;;17.47;45.23;97935.78;6783948;29;20227;-86
2022/02/18 10:03:58;;;;;;;2.73;1.73;;;;;;;17.63;45.33;97905.53;6786602;29;20250;-87
2022/02/18 10:07:20;;;;;;;4.03;1.70;;;;;;;17.82;44.84;97905.81;6797943;29;20724;-85
2022/02/18 10:10:43;;;;;;;4.77;1.97;;;;;;;18.22;43.93;97876.59;6790626;29;20820;-85
2022/02/18 10:14:05;;;;;;;2.00;1.60;;;;;;;18.41;43.95;97901.41;6789117;29;20211;-85
2022/02/18 10:17:37;;;;;;;3.13;1.73;;;;;;;18.31;44.50;97885.88;6790140;29;20209;-84
2022/02/18 10:20:59;;;;;;;4.43;1.60;;;;;;;18.33;44.52;97886.41;6791204;29;20314;-84
2022/02/18 10:24:22;;;;;;;2.70;1.77;;;;;;;18.42;44.24;97876.59;6789749;29;20210;-85
2022/02/18 10:27:45;;;;;;;2.40;1.60;;;;;;;18.93;43.54;97874.47;6792572;29;20215;-84
2022/02/18 10:31:09;;;;;;;2.20;1.77;;;;;;;19.36;42.39;97860.03;6789726;29;20239;-84
2022/02/18 10:34:30;;;;;;;4.87;1.80;;;;;;;20.18;41.45;97843.50;6789137;29;20676;-84
2022/02/18 10:37:54;;;;;;;3.23;1.53;;;;;;;20.39;40.52;97842.97;6790000;29;20697;-83
2022/02/18 10:41:23;;;;;;;1.87;1.20;;;;;;;20.42;40.74;97844.31;6790098;29;20639;-85
2022/02/18 10:44:45;;;;;;;2.97;2.00;;;;;;;20.12;40.71;97829.06;6789596;29;20202;-84
2022/02/18 10:48:10;;;;;;;2.70;2.07;;;;;;;20.17;40.86;97833.66;6788890;29;20214;-85
2022/02/18 10:51:42;;;;;;;5.43;4.53;;;;;;;19.53;42.24;97817.53;6788034;29;20371;-84
2022/02/18 10:55:07;;;;;;;4.83;2.20;;;;;;;20.10;41.50;97823.03;6788251;29;20199;-84
2022/02/18 10:58:30;;;;;;;4.00;3.30;;;;;;;19.46;42.34;97800.63;6787020;29;20218;-84
2022/02/18 11:01:52;;;;;;;7.17;2.00;;;;;;;19.54;42.57;97810.13;6787888;29;20404;-84
2022/02/18 11:05:25;;;;;;;2.70;1.47;;;;;;;19.61;42.26;97818.81;6787931;29;20242;-84
2022/02/18 11:08:48;;;;;;;3.17;1.70;;;;;;;19.90;41.46;97778.63;6788868;29;20237;-84
2022/02/18 11:12:11;;;;;;;1.67;1.40;;;;;;;19.94;41.60;97776.94;6788433;29;20329;-84
2022/02/18 11:15:35;;;;;;;1.43;1.20;;;;;;;20.17;41.51;97770.72;6786493;29;20221;-84
2022/02/18 11:18:58;;;;;;;1.90;1.70;;;;;;;20.14;41.20;97738.44;6792065;29;20305;-84
2022/02/18 11:22:21;;;;;;;3.93;1.60;;;;;;;20.23;41.05;97731.22;6792565;29;20712;-85
2022/02/18 11:25:43;;;;;;;2.63;1.40;;;;;;;20.87;40.59;97736.91;6793580;29;20212;-84
2022/02/18 11:29:07;;;;;;;7.30;2.40;;;;;;;19.89;41.01;97610.13;6799896;29;20225;-83
2022/02/18 11:32:31;;;;;;;5.00;1.47;;;;;;;21.04;39.86;97718.06;6794179;29;20237;-86
2022/02/18 11:36:02;;;;;;;3.57;1.90;;;;;;;20.08;40.55;97662.97;6791001;29;20216;-85
2022/02/18 11:39:39;;;;;;;3.33;1.70;;;;;;;20.73;40.04;97711.34;6787503;29;20231;-85
2022/02/18 11:43:25;;;;;;;5.20;1.50;;;;;;;20.17;39.79;97710.50;6787500;29;20235;-85
2022/02/18 11:47:13;;;;;;;3.47;2.20;;;;;;;19.73;40.73;97702.47;6786863;29;20575;-84
2022/02/18 11:50:35;;;;;;;4.13;2.67;;;;;;;19.76;40.71;97695.63;6787494;29;20235;-84
2022/02/18 11:53:59;;;;;;;7.60;4.07;;;;;;;19.85;40.70;97688.41;6786967;29;20581;-84
2022/02/18 11:57:23;;;;;;;5.30;3.77;;;;;;;20.35;39.71;97685.06;6786588;29;20579;-84
2022/02/18 12:00:46;;;;;;;3.40;1.47;;;;;;;20.35;39.28;97674.13;6785621;29;20235;-84
2022/02/18 12:04:15;;;;;;;2.33;1.70;;;;;;;20.01;39.84;97660.59;6785722;29;20204;-84
2022/02/18 12:07:38;;;;;;;3.57;1.77;;;;;;;20.30;39.43;97649.53;6785430;29;20254;-84
2022/02/18 12:10:59;;;;;;;4.63;1.40;;;;;;;20.55;38.74;97644.53;6784999;29;20722;-85
2022/02/18 12:14:22;;;;;;;1.87;1.33;;;;;;;20.10;39.52;97636.16;6784150;29;20298;-84
2022/02/18 12:17:48;;;;;;;2.97;1.50;;;;;;;19.95;39.40;97641.78;6785164;29;20209;-84
2022/02/18 12:21:11;;;;;;;4.60;1.53;;;;;;;19.68;39.67;97638.81;6785557;29;20233;-84
2022/02/18 12:24:46;;;;;;;3.23;1.40;;;;;;;20.01;39.43;97632.41;6786035;29;20292;-84
2022/02/18 12:28:20;;;;;;;2.23;1.73;;;;;;;20.24;38.52;97565.88;6785387;29;20213;-84
2022/02/18 12:31:53;;;;;;;5.43;1.87;;;;;;;20.25;38.54;97560.13;6785145;29;20359;-84
2022/02/18 12:35:18;;;;;;;4.80;1.80;;;;;;;19.57;39.56;97621.72;6785211;29;20194;-84
2022/02/18 12:38:42;;;;;;;2.77;1.33;;;;;;;19.41;39.66;97627.66;6785185;29;20214;-84
2022/02/18 12:42:09;;;;;;;2.57;1.50;;;;;;;19.76;39.57;97588.97;6785213;29;20223;-84
2022/02/18 12:45:45;;;;;;;1.73;1.27;;;;;;;19.94;39.50;97583.50;6785695;29;20704;-85
2022/02/18 12:49:08;;;;;;;4.43;1.60;;;;;;;20.26;39.15;97586.38;6784977;29;20666;-84
2022/02/18 12:52:30;;;;;;;4.80;1.43;;;;;;;20.15;39.39;97590.34;6784458;29;20281;-84
2022/02/18 12:55:54;;;;;;;4.13;1.43;;;;;;;19.46;40.58;97581.13;6782745;29;20211;-85
2022/02/18 12:59:20;;;;;;;2.73;1.50;;;;;;;19.83;40.46;97581.19;6784631;29;20195;-84
2022/02/18 13:02:43;;;;;;;2.27;1.47;;;;;;;19.64;40.49;97562.00;6784630;29;20310;-85
2022/02/18 13:06:07;;;;;;;3.53;1.50;;;;;;;19.94;40.26;97582.69;6783722;29;20207;-84
2022/02/18 13:09:31;;;;;;;3.13;1.43;;;;;;;19.55;40.13;97524.69;6784193;29;20247;-85
2022/02/18 13:12:54;;;;;;;2.27;1.40;;;;;;;20.06;39.75;97547.50;6784420;29;20259;-84
2022/02/18 13:16:19;;;;;;;6.00;2.10;;;;;;;19.98;40.09;97520.81;6784121;29;20698;-85
2022/02/18 13:19:43;;;;;;;3.17;1.50;;;;;;;20.39;38.94;97522.66;6783734;29;20202;-85
2022/02/18 13:23:08;;;;;;;3.23;1.47;;;;;;;20.08;39.79;97512.47;6783477;29;20372;-86
2022/02/18 13:26:29;;;;;;;4.13;2.30;;;;;;;20.13;39.51;97517.88;6783273;29;20287;-85
2022/02/18 13:29:55;;;;;;;3.57;1.90;;;;;;;20.22;39.21;97502.41;6783421;29;20689;-84
2022/02/18 13:33:18;;;;;;;8.80;2.07;;;;;;;19.95;38.72;97488.56;6783261;29;20228;-84
2022/02/18 13:36:40;;;;;;;4.30;1.80;;;;;;;19.81;39.02;97509.56;6782167;29;20213;-84
2022/02/18 13:40:05;;;;;;;2.30;1.80;;;;;;;19.81;38.74;97504.09;6786371;29;20246;-84
2022/02/18 13:43:31;;;;;;;4.50;1.97;;;;;;;19.94;38.72;97517.03;6790004;29;20241;-85
2022/02/18 13:46:52;;;;;;;3.37;2.30;;;;;;;19.89;37.96;97471.44;6791311;29;20194;-85
2022/02/18 13:50:14;;;;;;;4.67;1.40;;;;;;;19.97;38.08;97491.81;6811724;28;20209;-85
2022/02/18 13:53:37;;;;;;;2.30;1.20;;;;;;;19.82;37.75;97475.63;6792013;29;20229;-85
2022/02/18 13:57:09;;;;;;;4.53;1.37;;;;;;;19.96;37.87;97510.16;6789536;29;20209;-84
2022/02/18 14:00:38;;;;;;;1.93;1.40;;;;;;;20.10;37.43;97508.31;6791337;29;20763;-84
2022/02/18 14:04:00;;;;;;;1.93;1.00;;;;;;;19.93;37.74;97512.69;6790468;29;20281;-84
2022/02/18 14:07:26;;;;;;;4.23;1.67;;;;;;;19.75;38.15;97513.50;6791226;29;20298;-84
2022/02/18 14:10:50;;;;;;;6.97;1.60;;;;;;;19.87;37.91;97470.91;6791759;29;20224;-85
2022/02/18 14:14:16;;;;;;;2.27;1.40;;;;;;;20.23;37.59;97482.94;6789818;29;20231;-84
2022/02/18 14:17:42;;;;;;;2.67;1.30;;;;;;;20.34;37.61;97492.63;6790404;29;20192;-85
2022/02/18 14:21:06;;;;;;;2.73;1.50;;;;;;;19.97;38.01;97503.59;6790042;29;20376;-84
2022/02/18 14:24:34;;;;;;;3.27;1.70;;;;;;;20.03;38.01;97479.69;6789654;29;20213;-84
2022/02/18 14:27:56;;;;;;;4.03;1.40;;;;;;;20.02;37.96;97476.16;6789713;29;20251;-84
2022/02/18 14:31:22;;;;;;;5.67;1.87;;;;;;;20.72;37.01;97479.63;6790390;29;20252;-84
2022/02/18 14:34:57;;;;;;;5.43;2.30;;;;;;;19.96;37.32;97454.63;6790498;29;20207;-85
2022/02/18 14:38:18;;;;;;;5.90;2.30;;;;;;;20.32;37.30;97472.13;6797691;29;20195;-85
2022/02/18 14:42:00;;;;;;;3.53;2.10;;;;;;;20.48;37.13;97476.25;6802868;29;20224;-85
2022/02/18 14:45:23;;;;;;;3.43;2.03;;;;;;;20.32;37.38;97448.31;6803896;29;20222;-85
2022/02/18 14:48:46;;;;;;;3.10;2.10;;;;;;;20.53;37.06;97443.28;6806165;29;20218;-86
2022/02/18 14:52:08;;;;;;;3.40;1.83;;;;;;;20.08;37.87;97453.09;6794121;29;20242;-85
2022/02/18 14:55:32;;;;;;;3.43;2.20;;;;;;;20.59;36.75;97447.56;6786877;29;20211;-85
2022/02/18 14:58:54;;;;;;;2.37;1.47;;;;;;;20.50;37.19;97455.66;6788803;29;20209;-84
2022/02/18 15:02:16;;;;;;;2.77;1.43;;;;;;;20.64;36.29;97387.22;6787787;29;20606;-85
2022/02/18 15:05:40;;;;;;;3.33;1.57;;;;;;;20.81;36.33;97406.63;6786935;29;20235;-85
2022/02/18 15:09:02;;;;;;;2.47;1.60;;;;;;;20.99;35.72;97450.38;6787249;29;20204;-85
2022/02/18 15:12:25;;;;;;;3.73;1.90;;;;;;;20.96;36.49;97453.72;6786968;29;20381;-85
2022/02/18 15:15:46;;;;;;;2.87;2.07;;;;;;;20.75;36.67;97443.44;6786609;29;20574;-84
2022/02/18 15:19:08;;;;;;;4.10;1.80;;;;;;;20.75;37.40;97437.97;6786953;29;20726;-85
2022/02/18 15:22:31;;;;;;;2.57;1.70;;;;;;;20.15;37.87;97404.25;6786361;29;20234;-85
2022/02/18 15:25:53;;;;;;;3.00;1.50;;;;;;;20.59;37.81;97442.09;6786090;29;20349;-85
2022/02/18 15:34:35;;;;;;;4.73;2.10;;;;;;;20.65;37.79;97438.13;6786957;29;20671;-85
2022/02/18 15:36:35;;;;;;;4.70;1.93;;;;;;;20.09;39.06;97424.63;6785917;29;20216;-84
2022/02/18 15:43:37;;;;;;;2.10;1.53;;;;;;;20.19;38.44;97438.13;6786273;29;20191;-85
2022/02/18 15:46:59;;;;;;;1.97;1.77;;;;;;;20.67;37.57;97427.69;6787146;29;20227;-85
2022/02/18 15:50:21;;;;;;;3.27;1.80;;;;;;;20.62;37.71;97438.72;6787485;29;20203;-85
2022/02/18 15:53:43;;;;;;;3.80;1.60;;;;;;;20.53;38.06;97433.16;6785567;29;20310;-85
2022/02/18 15:57:06;;;;;;;5.53;3.20;;;;;;;20.29;38.39;97439.88;6784525;29;20577;-84
2022/02/18 16:00:28;;;;;;;2.30;1.57;;;;;;;19.93;38.97;97416.94;6786604;29;20251;-85
2022/02/18 16:03:49;;;;;;;4.87;1.37;;;;;;;20.16;38.71;97446.94;6786135;29;20923;-85
2022/02/18 16:07:13;;;;;;;4.23;1.77;;;;;;;19.49;40.01;97436.47;6786049;29;20228;-84
2022/02/18 16:10:36;;;;;;;6.73;1.77;;;;;;;19.76;39.57;97435.78;6786328;29;20235;-84
2022/02/18 16:13:59;;;;;;;4.23;1.60;;;;;;;18.97;40.62;97367.44;6785344;29;20238;-84
2022/02/18 16:17:20;;;;;;;5.03;1.90;;;;;;;19.21;41.36;97455.72;6785802;29;20210;-84
2022/02/18 16:20:42;;;;;;;3.57;1.80;;;;;;;19.25;41.05;97423.94;6785248;29;20232;-85
2022/02/18 16:24:05;;;;;;;6.03;1.70;;;;;;;19.31;41.00;97433.69;6785090;29;20294;-84
2022/02/18 16:27:26;;;;;;;4.07;1.87;;;;;;;19.64;40.36;97433.50;6786028;29;20232;-84
2022/02/18 16:30:49;;;;;;;1.60;1.40;;;;;;;19.26;40.85;97387.31;6785450;29;20320;-84
2022/02/18 16:34:11;;;;;;;3.70;2.10;;;;;;;19.14;41.80;97417.78;6785322;29;20233;-84
2022/02/18 16:37:33;;;;;;;3.07;1.47;;;;;;;19.15;41.75;97415.84;6785403;29;20207;-84
2022/02/18 16:40:54;;;;;;;4.60;1.70;;;;;;;19.02;41.80;97416.56;6785810;29;20281;-84
2022/02/18 16:44:16;;;;;;;3.50;1.70;;;;;;;18.98;41.93;97393.69;6786224;29;20231;-84
2022/02/18 16:47:41;;;;;;;2.87;1.67;;;;;;;19.14;40.59;97337.72;6787019;29;20203;-84
2022/02/18 16:51:02;;;;;;;3.03;1.70;;;;;;;19.34;40.87;97414.00;6787027;29;20694;-84
2022/02/18 16:54:24;;;;;;;3.30;1.77;;;;;;;19.32;41.14;97400.63;6785545;29;20502;-84
2022/02/18 16:57:47;;;;;;;3.13;1.50;;;;;;;19.28;40.98;97412.44;6784167;29;20272;-84
2022/02/18 17:01:08;;;;;;;2.03;1.83;;;;;;;19.39;40.45;97409.25;6785806;29;20243;-84
2022/02/18 17:04:31;;;;;;;2.60;1.60;;;;;;;19.60;39.78;97391.47;6786110;29;20286;-84
2022/02/18 17:07:54;;;;;;;1.83;1.70;;;;;;;18.66;40.85;97388.06;6786986;29;20314;-84
2022/02/18 17:11:15;;;;;;;1.63;1.50;;;;;;;18.34;40.57;97309.53;6787144;29;20229;-84
2022/02/18 17:14:37;;;;;;;3.37;1.50;;;;;;;18.67;40.92;97406.88;6784839;29;20232;-84
2022/02/18 17:17:59;;;;;;;2.63;1.93;;;;;;;19.18;39.94;97407.06;6786886;29;20214;-84
2022/02/18 17:21:22;;;;;;;3.37;2.00;;;;;;;18.50;41.12;97397.50;6786054;29;20720;-84
2022/02/18 17:24:43;;;;;;;4.10;1.40;;;;;;;18.48;40.83;97402.44;6785887;29;20257;-84
2022/02/18 17:28:05;;;;;;;1.43;1.30;;;;;;;18.48;40.77;97410.63;6787842;29;20204;-83
2022/02/18 17:31:27;;;;;;;2.13;1.57;;;;;;;18.89;40.05;97407.19;6786915;29;20245;-84
2022/02/18 17:34:49;;;;;;;3.57;1.67;;;;;;;18.63;40.01;97339.50;6783319;29;20234;-84
2022/02/18 17:38:12;;;;;;;1.30;1.30;;;;;;;18.44;39.85;97311.34;6806494;28;20227;-84
2022/02/18 17:41:34;;;;;;;1.63;1.53;;;;;;;18.56;40.39;97369.88;6786685;29;20232;-84
2022/02/18 17:44:55;;;;;;;4.17;1.50;;;;;;;19.23;39.54;97409.78;6787139;29;20212;-84
2022/02/18 17:48:17;;;;;;;1.60;1.27;;;;;;;18.56;40.55;97401.81;6787342;29;20207;-84
2022/02/18 17:51:39;;;;;;;4.80;1.50;;;;;;;18.38;40.55;97389.72;6786660;29;20241;-84
2022/02/18 17:55:02;;;;;;;2.73;1.37;;;;;;;18.30;41.09;97408.59;6786205;29;20236;-84
2022/02/18 17:58:26;;;;;;;1.67;1.40;;;;;;;17.85;40.82;97379.84;6784879;29;20208;-84
2022/02/18 18:01:50;;;;;;;0.90;0.90;;;;;;;18.14;40.58;97364.31;6787372;29;20600;-84
2022/02/18 18:05:11;;;;;;;5.43;1.60;;;;;;;18.95;39.75;97436.06;6785497;29;20223;-84
2022/02/18 18:08:33;;;;;;;3.40;1.57;;;;;;;18.43;42.82;97528.88;6785504;29;20209;-84
2022/02/18 18:11:56;;;;;;;4.27;1.93;;;;;;;16.54;51.47;97636.63;6785987;29;20271;-84
2022/02/18 18:15:19;;;;;;;1.47;1.10;;;;;;;13.72;55.45;97683.78;6786412;29;20231;-85
2022/02/18 18:18:41;;;;;;;3.40;1.40;;;;;;;13.83;57.13;97728.88;6786975;29;20839;-85
2022/02/18 18:22:03;;;;;;;4.00;1.20;;;;;;;12.63;57.45;97761.34;6783694;29;20231;-86
2022/02/18 18:25:25;;;;;;;1.17;1.17;;;;;;;12.25;57.38;97762.00;6786020;29;20354;-85
2022/02/18 18:28:48;;;;;;;4.37;2.73;;;;;;;12.26;56.96;97806.03;6789254;29;20214;-85
2022/02/18 18:32:10;;;;;;;2.03;1.93;;;;;;;12.51;55.98;97803.84;6788724;29;20238;-85
2022/02/18 18:35:32;;;;;;;3.63;3.00;;;;;;;12.07;54.06;97828.88;6788172;29;20223;-86
2022/02/18 18:38:53;;;;;;;4.83;3.43;;;;;;;12.20;53.80;97836.72;6788005;29;20213;-85
2022/02/18 18:42:16;;;;;;;3.27;2.60;;;;;;;12.13;54.23;97852.25;6787483;29;20722;-87
2022/02/18 18:45:39;;;;;;;2.67;1.90;;;;;;;12.11;52.79;97830.06;6786653;29;20210;-87
2022/02/18 18:49:01;;;;;;;3.63;1.70;;;;;;;12.48;51.57;97842.16;6786844;29;20217;-87
2022/02/18 18:52:23;;;;;;;3.83;3.13;;;;;;;12.52;51.02;97851.44;6786778;29;20236;-87
2022/02/18 18:55:45;;;;;;;2.03;1.57;;;;;;;12.28;50.45;97842.56;6786380;29;20213;-87
2022/02/18 18:59:08;;;;;;;3.10;2.80;;;;;;;12.60;50.23;97840.25;6786742;29;20259;-88
2022/02/18 19:02:31;;;;;;;1.50;1.40;;;;;;;12.08;49.60;97852.97;6786480;29;20232;-87
2022/02/18 19:05:52;;;;;;;3.57;2.43;;;;;;;12.56;50.15;97864.25;6786717;29;20573;-88
2022/02/18 19:09:14;;;;;;;4.00;2.17;;;;;;;12.13;49.42;97877.41;6786618;29;20216;-87
2022/02/18 19:12:36;;;;;;;2.20;2.00;;;;;;;12.53;49.01;97880.13;6786252;29;20375;-87
2022/02/18 19:15:57;;;;;;;2.53;1.80;;;;;;;12.40;49.13;97856.88;6786336;29;20270;-87
2022/02/18 19:19:20;;;;;;;1.43;1.33;;;;;;;12.20;49.37;97879.94;6785935;29;20774;-87
2022/02/18 19:22:42;;;;;;;2.97;1.93;;;;;;;12.35;48.92;97900.03;6786373;29;20243;-87
2022/02/18 19:26:03;;;;;;;1.50;1.50;;;;;;;12.02;48.48;97928.72;6785824;29;20227;-87
2022/02/18 19:29:25;;;;;;;1.60;1.50;;;;;;;11.81;48.17;97869.91;6786276;29;20358;-87
2022/02/18 19:32:49;;;;;;;3.60;1.50;;;;;;;12.05;47.68;97939.88;6785626;29;20239;-87
2022/02/18 19:36:12;;;;;;;2.23;1.50;;;;;;;12.42;45.99;97929.63;6785795;29;20251;-87
2022/02/18 19:39:35;;;;;;;1.63;1.30;;;;;;;12.10;46.09;97915.69;6785842;29;20211;-87
2022/02/18 19:42:56;;;;;;;1.60;1.50;;;;;;;11.88;46.34;97965.97;6785701;29;20237;-86
2022/02/18 19:46:18;;;;;;;2.63;1.57;;;;;;;11.81;47.03;97977.94;6784940;29;20219;-86
2022/02/18 19:49:40;;;;;;;2.10;1.67;;;;;;;12.43;45.29;97937.50;6785124;29;20584;-86
2022/02/18 19:53:03;;;;;;;2.47;1.50;;;;;;;12.12;45.31;97947.88;6786918;29;20375;-86
2022/02/18 19:56:25;;;;;;;1.40;1.30;;;;;;;12.44;44.87;97971.59;6785858;29;20342;-86
2022/02/18 19:59:47;;;;;;;1.60;1.47;;;;;;;12.18;45.04;97971.25;6787457;29;20210;-86
2022/02/18 20:03:09;;;;;;;4.20;2.03;;;;;;;12.08;45.40;97969.13;6795162;29;20216;-85
2022/02/18 20:06:30;;;;;;;1.43;1.33;;;;;;;12.31;45.00;97976.41;6809416;28;20206;-87
2022/02/18 20:09:54;;;;;;;4.07;1.90;;;;;;;11.90;45.05;97914.41;6787807;29;20679;-86
2022/02/18 20:13:16;;;;;;;5.27;1.53;;;;;;;11.96;45.38;97991.78;6784829;29;20359;-86
2022/02/18 20:16:37;;;;;;;1.50;1.40;;;;;;;12.24;44.75;97995.47;6786023;29;20289;-86
2022/02/18 20:19:59;;;;;;;2.40;2.20;;;;;;;12.27;45.26;98008.50;6785414;29;20703;-87
2022/02/18 20:23:23;;;;;;;1.87;1.60;;;;;;;12.50;45.08;97991.44;6784133;29;20231;-87
2022/02/18 20:26:46;;;;;;;2.17;1.83;;;;;;;12.13;45.48;98017.06;6785701;29;20212;-87
2022/02/18 20:30:09;;;;;;;3.77;1.80;;;;;;;12.06;45.50;98009.09;6784607;29;20221;-87
2022/02/18 20:33:31;;;;;;;6.60;3.20;;;;;;;12.32;45.39;98024.00;6784927;29;20819;-86
2022/02/18 20:36:55;;;;;;;10.23;7.20;;;;;;;12.21;45.75;98025.66;6786978;29;20207;-87
2022/02/18 20:40:17;;;;;;;2.20;2.00;;;;;;;12.15;45.74;98056.31;6785844;29;20549;-87
2022/02/18 20:43:40;;;;;;;3.90;1.80;;;;;;;12.01;46.06;98041.38;6787999;29;20216;-86